Time,TemperatureF,DewpointF,PressureIn,WindDirection,WindDirectionDegrees,WindSpeedMPH,WindSpeedGustMPH,Humidity,HourlyPrecipIn,Conditions,Clouds,dailyrainin,SolarRadiationWatts/m^2,SoftwareType,DateUTC
2013-11-04 01:28:00,43.9,34.4,30.17,SE,141,10.9,20.7,69,0.00,CLR,,0.00,0.0,WeatherDisplay:10.37,2013-11-04 07:28:00,
2013-11-04 01:29:00,43.9,34.4,30.17,SSE,154,9.4,11.5,69,0.00,CLR,,0.00,0.0,WeatherDisplay:10.37,2013-11-04 07:29:00,
2013-11-04 01:34:00,43.9,34.4,30.16,SE,132,10.0,16.1,69,0.00,CLR,,0.00,0.0,WeatherDisplay:10.37,2013-11-04 07:34:00,
2013-11-04 01:39:00,43.9,34.4,30.16,SSE,166,8.3,10.4,69,0.00,CLR,,0.00,0.0,WeatherDisplay:10.37,2013-11-04 07:39:00,
2013-11-04 01:44:00,43.9,34.4,30.16,SE,136,13.5,17.3,69,0.00,CLR,,0.00,0.0,WeatherDisplay:10.37,2013-11-04 07:44:00,
2013-11-04 01:49:00,43.9,34.4,30.15,SSE,159,10.2,10.2,69,0.00,CLR,,0.00,0.0,WeatherDisplay:10.37,2013-11-04 07:49:00,
2013-11-04 01:54:00,43.9,34.7,30.15,SE,146,10.8,12.7,70,0.00,CLR,,0.00,0.0,WeatherDisplay:10.37,2013-11-04 07:54:00,
2013-11-04 01:59:00,43.8,34.6,30.15,South,188,10.2,15.0,70,0.00,CLR,,0.00,0.0,WeatherDisplay:10.37,2013-11-04 07:59:00,
2013-11-04 02:04:00,43.8,34.6,30.14,SE,128,9.3,10.4,70,0.00,CLR,,0.00,0.0,WeatherDisplay:10.37,2013-11-04 08:04:00,
2013-11-04 02:09:00,43.8,34.6,30.14,South,172,8.0,10.8,70,0.00,CLR,,0.00,0.0,WeatherDisplay:10.37,2013-11-04 08:09:00,
2013-11-04 02:14:00,43.8,34.6,30.14,SE,142,11.2,15.6,70,0.00,CLR,,0.00,0.0,WeatherDisplay:10.37,2013-11-04 08:14:00,
2013-11-04 02:19:00,43.9,34.7,30.15,SSE,158,8.7,11.5,70,0.00,CLR,,0.00,0.0,WeatherDisplay:10.37,2013-11-04 08:19:00,
2013-11-04 02:24:00,43.9,34.7,30.15,SSE,164,14.3,18.4,70,0.00,CLR,,0.00,0.0,WeatherDisplay:10.37,2013-11-04 08:24:00,
2013-11-04 02:29:00,44.1,34.9,30.15,South,188,10.7,10.7,70,0.00,CLR,,0.00,0.0,WeatherDisplay:10.37,2013-11-04 08:29:00,
2013-11-04 02:34:00,43.9,34.7,30.14,SSE,162,13.5,20.7,70,0.00,CLR,,0.00,0.0,WeatherDisplay:10.37,2013-11-04 08:34:00,
2013-11-04 02:39:00,43.9,34.7,30.14,SE,135,11.7,20.7,70,0.00,CLR,,0.00,0.0,WeatherDisplay:10.37,2013-11-04 08:39:00,
2013-11-04 02:44:00,43.9,35.1,30.14,South,180,11.3,17.3,71,0.00,CLR,,0.00,0.0,WeatherDisplay:10.37,2013-11-04 08:44:00,
2013-11-04 02:49:00,43.9,35.1,30.13,SE,138,10.4,16.1,71,0.00,CLR,,0.00,0.0,WeatherDisplay:10.37,2013-11-04 08:49:00,
2013-11-04 02:54:00,43.9,35.1,30.13,SSE,150,14.9,18.4,71,0.00,CLR,,0.00,0.0,WeatherDisplay:10.37,2013-11-04 08:54:00,
2013-11-04 02:59:00,43.8,35.0,30.13,SE,145,11.2,15.0,71,0.00,CLR,,0.00,0.0,WeatherDisplay:10.37,2013-11-04 08:59:00,
2013-11-04 03:04:00,43.6,35.2,30.13,SSE,167,10.0,10.8,72,0.00,CLR,,0.00,0.0,WeatherDisplay:10.37,2013-11-04 09:04:00,
2013-11-04 03:09:00,43.8,35.0,30.13,South,183,11.2,11.5,71,0.00,CLR,,0.00,0.0,WeatherDisplay:10.37,2013-11-04 09:09:00,
2013-11-04 03:14:00,43.8,35.0,30.13,SSE,158,9.4,15.0,71,0.00,CLR,,0.00,0.0,WeatherDisplay:10.37,2013-11-04 09:14:00,
2013-11-04 03:19:00,43.8,35.0,30.12,SSE,167,10.6,12.7,71,0.00,CLR,,0.00,0.0,WeatherDisplay:10.37,2013-11-04 09:19:00,
2013-11-04 03:24:00,43.8,35.0,30.12,SSE,160,12.6,12.7,71,0.00,CLR,,0.00,0.0,WeatherDisplay:10.37,2013-11-04 09:24:00,
2013-11-04 03:29:00,43.8,35.0,30.12,South,173,10.9,13.2,71,0.00,CLR,,0.00,0.0,WeatherDisplay:10.37,2013-11-04 09:29:00,
2013-11-04 03:34:00,43.8,35.0,30.12,SE,136,11.9,12.7,71,0.00,CLR,,0.00,0.0,WeatherDisplay:10.37,2013-11-04 09:34:00,
2013-11-04 03:39:00,43.9,35.1,30.12,SE,142,14.5,16.1,71,0.00,CLR,,0.00,0.0,WeatherDisplay:10.37,2013-11-04 09:39:00,
2013-11-04 03:44:00,43.9,35.1,30.12,SSE,148,11.9,23.0,71,0.00,CLR,,0.00,0.0,WeatherDisplay:10.37,2013-11-04 09:44:00,
2013-11-04 03:49:00,43.9,35.1,30.12,SSE,165,11.7,17.3,71,0.00,CLR,,0.00,0.0,WeatherDisplay:10.37,2013-11-04 09:49:00,
2013-11-04 03:54:00,43.9,35.1,30.12,SE,146,12.0,16.1,71,0.00,CLR,,0.00,0.0,WeatherDisplay:10.37,2013-11-04 09:54:00,
2013-11-04 03:59:00,43.9,35.1,30.12,SE,135,15.6,18.4,71,0.00,CLR,,0.00,0.0,WeatherDisplay:10.37,2013-11-04 09:59:00,
2013-11-04 04:04:00,43.9,34.7,30.11,SSE,150,11.4,20.7,70,0.00,CLR,,0.00,0.0,WeatherDisplay:10.37,2013-11-04 10:04:00,
2013-11-04 04:09:00,43.9,35.1,30.11,SSE,157,15.6,21.9,71,0.00,CLR,,0.00,0.0,WeatherDisplay:10.37,2013-11-04 10:09:00,
2013-11-04 04:14:00,43.9,34.7,30.11,SE,132,13.7,17.3,70,0.00,CLR,,0.00,0.0,WeatherDisplay:10.37,2013-11-04 10:14:00,
2013-11-04 04:19:00,43.9,34.7,30.11,SSE,156,17.5,23.0,70,0.00,CLR,,0.00,0.0,WeatherDisplay:10.37,2013-11-04 10:19:00,
2013-11-04 04:24:00,44.1,34.9,30.11,South,169,10.8,19.6,70,0.00,CLR,,0.00,0.0,WeatherDisplay:10.37,2013-11-04 10:24:00,
2013-11-04 04:29:00,44.1,34.9,30.11,SE,146,13.1,15.0,70,0.00,CLR,,0.00,0.0,WeatherDisplay:10.37,2013-11-04 10:29:00,
2013-11-04 04:34:00,44.1,34.9,30.11,South,186,14.9,24.2,70,0.00,CLR,,0.00,0.0,WeatherDisplay:10.37,2013-11-04 10:34:00,
2013-11-04 04:39:00,44.1,34.9,30.11,South,173,13.9,18.4,70,0.00,CLR,,0.00,0.0,WeatherDisplay:10.37,2013-11-04 10:39:00,
2013-11-04 04:44:00,44.1,34.9,30.11,SE,129,14.8,17.3,70,0.00,CLR,,0.00,0.0,WeatherDisplay:10.37,2013-11-04 10:44:00,
2013-11-04 04:49:00,44.1,34.9,30.10,SSE,147,15.7,17.3,70,0.00,CLR,,0.00,0.0,WeatherDisplay:10.37,2013-11-04 10:49:00,
2013-11-04 04:54:00,44.1,34.9,30.10,SE,143,12.3,17.3,70,0.00,CLR,,0.00,0.0,WeatherDisplay:10.37,2013-11-04 10:54:00,
2013-11-04 04:59:00,44.2,34.7,30.10,SSE,162,11.8,14.4,69,0.00,CLR,,0.00,0.0,WeatherDisplay:10.37,2013-11-04 10:59:00,
2013-11-04 05:04:00,44.2,34.7,30.09,SE,135,15.7,19.6,69,0.00,CLR,,0.00,0.0,WeatherDisplay:10.37,2013-11-04 11:04:00,
2013-11-04 05:09:00,44.2,34.7,30.09,SSE,154,12.7,18.4,69,0.00,CLR,,0.00,0.0,WeatherDisplay:10.37,2013-11-04 11:09:00,
2013-11-04 05:14:00,44.3,34.8,30.09,SSE,153,11.6,14.4,69,0.00,CLR,,0.00,0.0,WeatherDisplay:10.37,2013-11-04 11:14:00,
2013-11-04 05:17:00,44.3,34.8,30.10,SE,142,14.4,19.6,69,0.00,CLR,,0.00,0.0,WeatherDisplay:10.37,2013-11-04 11:17:00,
2013-11-04 05:22:00,44.3,34.8,30.10,South,184,12.2,17.3,69,0.00,CLR,,0.00,0.0,WeatherDisplay:10.37,2013-11-04 11:22:00,
2013-11-04 05:27:00,44.5,35.0,30.10,SSE,158,13.7,14.4,69,0.00,CLR,,0.00,0.0,WeatherDisplay:10.37,2013-11-04 11:27:00,
2013-11-04 05:32:00,44.5,35.0,30.09,SE,136,16.7,24.2,69,0.00,CLR,,0.00,0.0,WeatherDisplay:10.37,2013-11-04 11:32:00,
2013-11-04 05:37:00,44.5,35.0,30.09,South,182,10.8,16.1,69,0.00,CLR,,0.00,0.0,WeatherDisplay:10.37,2013-11-04 11:37:00,
2013-11-04 05:42:00,44.5,35.0,30.09,SE,128,13.4,20.7,69,0.00,CLR,,0.00,0.0,WeatherDisplay:10.37,2013-11-04 11:42:00,
2013-11-04 05:47:00,44.6,34.7,30.09,SE,139,10.2,15.0,68,0.00,CLR,,0.00,0.0,WeatherDisplay:10.37,2013-11-04 11:47:00,
2013-11-04 05:52:00,44.8,34.9,30.09,SE,138,11.3,18.4,68,0.00,CLR,,0.00,0.0,WeatherDisplay:10.37,2013-11-04 11:52:00,
2013-11-04 05:57:00,44.6,34.7,30.09,SE,142,11.9,16.8,68,0.00,CLR,,0.00,0.0,WeatherDisplay:10.37,2013-11-04 11:57:00,
2013-11-04 06:02:00,44.8,34.9,30.09,SE,138,11.2,17.3,68,0.00,CLR,,0.00,0.0,WeatherDisplay:10.37,2013-11-04 12:02:00,
2013-11-04 06:07:00,44.8,34.9,30.09,SE,143,16.2,16.8,68,0.00,CLR,,0.00,0.0,WeatherDisplay:10.37,2013-11-04 12:07:00,
2013-11-04 06:12:00,44.9,34.6,30.09,SSE,165,9.3,10.8,67,0.00,CLR,,0.00,0.0,WeatherDisplay:10.37,2013-11-04 12:12:00,
2013-11-04 06:17:00,44.9,34.6,30.09,South,169,12.3,15.0,67,0.00,CLR,,0.00,0.0,WeatherDisplay:10.37,2013-11-04 12:17:00,
2013-11-04 06:22:00,45.1,34.8,30.09,SSE,161,10.3,15.0,67,0.00,CLR,,0.00,0.0,WeatherDisplay:10.37,2013-11-04 12:22:00,
2013-11-04 06:27:00,45.1,34.8,30.09,SSE,159,13.4,20.4,67,0.00,CLR,,0.00,0.0,WeatherDisplay:10.37,2013-11-04 12:27:00,
2013-11-04 06:32:00,45.2,34.5,30.08,SSE,157,10.5,12.7,66,0.00,CLR,,0.00,0.0,WeatherDisplay:10.37,2013-11-04 12:32:00,
2013-11-04 06:37:00,45.2,34.5,30.08,SSE,154,11.4,16.1,66,0.00,CLR,,0.00,0.0,WeatherDisplay:10.37,2013-11-04 12:37:00,
2013-11-04 06:42:00,45.2,34.5,30.08,SSE,159,10.8,12.7,66,0.00,SCT,,0.00,0.0,WeatherDisplay:10.37,2013-11-04 12:42:00,
2013-11-04 06:47:00,45.2,34.5,30.08,SE,141,12.3,17.3,66,0.00,SCT,,0.00,0.0,WeatherDisplay:10.37,2013-11-04 12:47:00,
2013-11-04 06:52:00,45.4,34.7,30.08,SSE,149,10.1,12.7,66,0.00,SCT,,0.00,0.0,WeatherDisplay:10.37,2013-11-04 12:52:00,
2013-11-04 06:57:00,45.2,34.9,30.08,SSE,161,11.5,16.1,67,0.00,SCT,,0.00,0.0,WeatherDisplay:10.37,2013-11-04 12:57:00,
2013-11-04 07:02:00,45.4,34.7,30.08,SE,132,11.4,16.1,66,0.00,BKN,,0.00,0.0,WeatherDisplay:10.37,2013-11-04 13:02:00,
2013-11-04 07:07:00,45.5,34.8,30.08,SSE,159,10.3,15.0,66,0.00,BKN,,0.00,7.0,WeatherDisplay:10.37,2013-11-04 13:07:00,
2013-11-04 07:12:00,45.5,34.8,30.08,SE,140,15.1,17.3,66,0.00,BKN,,0.00,11.0,WeatherDisplay:10.37,2013-11-04 13:12:00,
2013-11-04 07:17:00,45.5,34.8,30.08,SSE,167,11.2,12.7,66,0.00,BKN,,0.00,14.0,WeatherDisplay:10.37,2013-11-04 13:17:00,
2013-11-04 07:22:00,45.5,35.5,30.08,SE,143,13.0,17.3,68,0.00,SCT,,0.00,19.0,WeatherDisplay:10.37,2013-11-04 13:22:00,
2013-11-04 07:27:00,45.7,35.0,30.08,SE,145,10.2,12.7,66,0.00,SCT,,0.00,25.0,WeatherDisplay:10.37,2013-11-04 13:27:00,
2013-11-04 07:32:00,45.7,35.0,30.08,SE,139,9.0,12.7,66,0.00,SCT,,0.00,28.0,WeatherDisplay:10.37,2013-11-04 13:32:00,
2013-11-04 07:37:00,45.7,35.4,30.08,SSE,162,9.4,13.2,67,0.00,SCT,,0.00,33.0,WeatherDisplay:10.37,2013-11-04 13:37:00,
2013-11-04 07:42:00,45.7,35.0,30.08,SSE,167,12.6,18.4,66,0.00,BKN,,0.00,35.0,WeatherDisplay:10.37,2013-11-04 13:42:00,
2013-11-04 07:47:00,45.8,35.1,30.08,SSE,154,9.6,11.5,66,0.00,BKN,,0.00,35.0,WeatherDisplay:10.37,2013-11-04 13:47:00,
2013-11-04 07:52:00,45.8,35.1,30.08,South,184,13.3,16.1,66,0.00,BKN,,0.00,35.0,WeatherDisplay:10.37,2013-11-04 13:52:00,
2013-11-04 07:57:00,46.0,35.3,30.08,SSE,161,13.9,16.1,66,0.00,BKN,,0.00,40.0,WeatherDisplay:10.37,2013-11-04 13:57:00,
2013-11-04 08:02:00,46.0,35.3,30.08,SE,136,13.1,19.6,66,0.00,OVC,,0.00,47.0,WeatherDisplay:10.37,2013-11-04 14:02:00,
2013-11-04 08:07:00,46.1,35.4,30.08,SSE,162,9.8,15.0,66,0.00,OVC,,0.00,53.0,WeatherDisplay:10.37,2013-11-04 14:07:00,
2013-11-04 08:12:00,46.1,35.7,30.08,SE,146,8.8,12.0,67,0.00,OVC,,0.00,58.0,WeatherDisplay:10.37,2013-11-04 14:12:00,
2013-11-04 08:17:00,46.1,35.4,30.08,SSE,161,9.6,10.4,66,0.00,OVC,,0.00,69.0,WeatherDisplay:10.37,2013-11-04 14:17:00,
2013-11-04 08:22:00,46.1,35.7,30.08,South,171,9.5,15.0,67,0.00,OVC,,0.00,84.0,WeatherDisplay:10.37,2013-11-04 14:22:00,
2013-11-04 08:27:00,46.2,35.5,30.08,SSE,150,12.0,16.1,66,0.00,OVC,,0.00,90.0,WeatherDisplay:10.37,2013-11-04 14:27:00,
2013-11-04 08:32:00,46.2,35.5,30.08,SSE,147,11.4,15.0,66,0.00,OVC,,0.00,81.0,WeatherDisplay:10.37,2013-11-04 14:32:00,
2013-11-04 08:37:00,46.4,35.7,30.08,South,183,9.7,15.0,66,0.00,OVC,,0.00,81.0,WeatherDisplay:10.37,2013-11-04 14:37:00,
2013-11-04 08:42:00,46.4,35.7,30.08,SSE,157,10.4,20.7,66,0.00,BKN,,0.00,91.0,WeatherDisplay:10.37,2013-11-04 14:42:00,
2013-11-04 08:47:00,46.5,35.7,30.08,South,175,15.0,18.4,66,0.00,BKN,,0.00,97.0,WeatherDisplay:10.37,2013-11-04 14:47:00,
2013-11-04 08:52:00,46.5,35.7,30.08,SSE,167,12.2,18.4,66,0.00,BKN,,0.00,93.0,WeatherDisplay:10.37,2013-11-04 14:52:00,
2013-11-04 08:57:00,46.5,36.1,30.08,SSE,150,9.6,11.5,67,0.00,BKN,,0.00,111.0,WeatherDisplay:10.37,2013-11-04 14:57:00,
2013-11-04 09:02:00,46.7,35.9,30.07,SE,146,12.8,24.0,66,0.00,SCT,,0.00,139.0,WeatherDisplay:10.37,2013-11-04 15:02:00,
2013-11-04 09:07:00,46.8,36.0,30.07,SSW,193,13.6,18.4,66,0.00,SCT,,0.00,178.0,WeatherDisplay:10.37,2013-11-04 15:07:00,
2013-11-04 09:12:00,47.0,36.2,30.07,South,180,14.0,18.4,66,0.00,SCT,,0.00,229.0,WeatherDisplay:10.37,2013-11-04 15:12:00,
2013-11-04 09:17:00,47.3,36.1,30.08,South,182,9.4,17.3,65,0.00,SCT,,0.00,176.0,WeatherDisplay:10.37,2013-11-04 15:17:00,
2013-11-04 09:22:00,47.4,36.6,30.08,South,172,10.1,10.4,66,0.00,CLR,,0.00,179.0,WeatherDisplay:10.37,2013-11-04 15:22:00,
2013-11-04 09:27:00,47.6,36.8,30.08,SSE,155,8.2,10.4,66,0.00,CLR,,0.00,193.0,WeatherDisplay:10.37,2013-11-04 15:27:00,
2013-11-04 09:32:00,47.9,37.1,30.08,SE,142,9.5,11.5,66,0.00,CLR,,0.00,200.0,WeatherDisplay:10.37,2013-11-04 15:32:00,
2013-11-04 09:37:00,48.2,37.4,30.08,SSE,168,6.9,10.8,66,0.00,CLR,,0.00,195.0,WeatherDisplay:10.37,2013-11-04 15:37:00,
2013-11-04 09:42:00,48.2,37.0,30.08,SE,126,15.2,20.7,65,0.00,CLR,,0.00,171.0,WeatherDisplay:10.37,2013-11-04 15:42:00,
2013-11-04 09:47:00,48.2,37.0,30.08,SSE,152,12.2,15.0,65,0.00,CLR,,0.00,178.0,WeatherDisplay:10.37,2013-11-04 15:47:00,
2013-11-04 09:52:00,48.3,37.1,30.08,SSE,157,9.3,15.0,65,0.00,CLR,,0.00,162.0,WeatherDisplay:10.37,2013-11-04 15:52:00,
2013-11-04 09:57:00,48.5,37.3,30.08,South,173,10.7,12.7,65,0.00,CLR,,0.00,155.0,WeatherDisplay:10.37,2013-11-04 15:57:00,
2013-11-04 10:02:00,48.5,37.3,30.07,SSE,153,14.1,17.3,65,0.00,SCT,,0.00,156.0,WeatherDisplay:10.37,2013-11-04 16:02:00,
2013-11-04 10:07:00,48.5,36.9,30.07,SSE,168,16.4,21.9,64,0.00,SCT,,0.00,165.0,WeatherDisplay:10.37,2013-11-04 16:07:00,
2013-11-04 10:12:00,48.5,37.3,30.07,South,183,13.2,16.1,65,0.00,SCT,,0.00,183.0,WeatherDisplay:10.37,2013-11-04 16:12:00,
2013-11-04 10:17:00,48.6,37.4,30.07,South,187,13.6,18.4,65,0.00,SCT,,0.00,174.0,WeatherDisplay:10.37,2013-11-04 16:17:00,
2013-11-04 10:22:00,48.5,37.3,30.07,South,183,14.8,18.4,65,0.00,SCT,,0.00,178.0,WeatherDisplay:10.37,2013-11-04 16:22:00,
2013-11-04 10:27:00,48.5,37.7,30.07,SSE,167,8.7,16.8,66,0.00,SCT,,0.00,179.0,WeatherDisplay:10.37,2013-11-04 16:27:00,
2013-11-04 10:32:00,48.6,37.7,30.06,SSW,194,9.3,19.6,66,0.00,SCT,,0.00,155.0,WeatherDisplay:10.37,2013-11-04 16:32:00,
2013-11-04 10:37:00,48.3,37.1,30.06,SSE,168,16.5,24.2,65,0.00,SCT,,0.00,171.0,WeatherDisplay:10.37,2013-11-04 16:37:00,
2013-11-04 10:42:00,48.3,37.5,30.06,South,189,8.5,10.4,66,0.00,BKN,,0.00,169.0,WeatherDisplay:10.37,2013-11-04 16:42:00,
2013-11-04 10:47:00,48.3,37.5,30.06,SE,146,13.8,17.3,66,0.00,BKN,,0.00,160.0,WeatherDisplay:10.37,2013-11-04 16:47:00,
2013-11-04 10:52:00,48.3,37.5,30.06,SSE,167,9.4,10.4,66,0.00,BKN,,0.00,135.0,WeatherDisplay:10.37,2013-11-04 16:52:00,
2013-11-04 10:57:00,48.3,37.5,30.06,South,175,9.5,20.7,66,0.00,BKN,,0.00,120.0,WeatherDisplay:10.37,2013-11-04 16:57:00,
2013-11-04 11:02:00,48.3,37.5,30.06,South,178,11.6,15.0,66,0.00,OVC,,0.00,135.0,WeatherDisplay:10.37,2013-11-04 17:02:00,
2013-11-04 11:17:00,48.6,37.7,30.06,SSE,163,10.0,20.0,66,0.00,OVC,,0.00,123.0,WeatherDisplay:10.37,2013-11-04 17:17:00,
2013-11-04 11:22:00,48.5,37.7,30.06,South,171,12.0,22.0,66,0.00,OVC,,0.00,91.0,WeatherDisplay:10.37,2013-11-04 17:22:00,
2013-11-04 11:27:00,48.5,38.0,30.06,SSE,159,8.0,15.0,67,0.00,OVC,,0.00,97.0,WeatherDisplay:10.37,2013-11-04 17:27:00,
2013-11-04 11:32:00,48.5,38.0,30.04,SSE,158,10.0,15.0,67,0.00,OVC,,0.00,114.0,WeatherDisplay:10.37,2013-11-04 17:32:00,
2013-11-04 11:37:00,48.5,38.0,30.04,SE,140,9.4,25.3,67,0.00,OVC,,0.00,130.0,WeatherDisplay:10.37,2013-11-04 17:37:00,
2013-11-04 11:42:00,48.6,37.7,30.04,SSE,155,12.7,16.1,66,0.00,OVC,,0.00,155.0,WeatherDisplay:10.37,2013-11-04 17:42:00,
2013-11-04 11:47:00,48.8,37.9,30.02,SE,142,10.9,13.2,66,0.00,OVC,,0.00,209.0,WeatherDisplay:10.37,2013-11-04 17:47:00,
2013-11-04 11:52:00,49.1,38.2,30.02,SSE,163,11.7,14.4,66,0.00,OVC,,0.00,216.0,WeatherDisplay:10.37,2013-11-04 17:52:00,
2013-11-04 11:57:00,49.2,38.3,30.02,South,175,10.7,16.8,66,0.00,OVC,,0.00,139.0,WeatherDisplay:10.37,2013-11-04 17:57:00,
2013-11-04 12:02:00,49.5,38.6,30.02,South,169,8.6,17.3,66,0.00,OVC,,0.00,91.0,WeatherDisplay:10.37,2013-11-04 18:02:00,
2013-11-04 12:07:00,49.5,38.6,30.02,South,178,9.2,11.5,66,0.00,OVC,,0.00,81.0,WeatherDisplay:10.37,2013-11-04 18:07:00,
2013-11-04 12:12:00,49.5,38.6,30.02,SSE,152,8.0,15.0,66,0.00,OVC,,0.00,134.0,WeatherDisplay:10.37,2013-11-04 18:12:00,
2013-11-04 12:17:00,49.8,38.9,30.02,South,182,10.8,10.8,66,0.00,OVC,,0.00,146.0,WeatherDisplay:10.37,2013-11-04 18:17:00,
2013-11-04 12:22:00,49.8,38.9,30.02,South,177,9.5,12.0,66,0.00,OVC,,0.00,91.0,WeatherDisplay:10.37,2013-11-04 18:22:00,
2013-11-04 12:27:00,49.9,39.0,30.02,SSE,161,7.0,10.4,66,0.00,OVC,,0.00,107.0,WeatherDisplay:10.37,2013-11-04 18:27:00,
2013-11-04 12:32:00,50.1,38.8,30.02,SSE,167,9.9,11.5,65,0.00,OVC,,0.00,84.0,WeatherDisplay:10.37,2013-11-04 18:32:00,
2013-11-04 12:37:00,50.2,39.3,30.02,South,175,5.9,6.9,66,0.00,OVC,,0.00,90.0,WeatherDisplay:10.37,2013-11-04 18:37:00,
2013-11-04 12:42:00,50.4,39.1,30.02,South,189,6.1,8.4,65,0.00,OVC,,0.00,63.0,WeatherDisplay:10.37,2013-11-04 18:42:00,
2013-11-04 12:47:00,50.5,39.2,30.01,South,184,4.9,9.6,65,0.00,OVC,,0.00,67.0,WeatherDisplay:10.37,2013-11-04 18:47:00,
2013-11-04 12:52:00,50.5,39.2,30.01,South,186,11.5,15.0,65,0.00,OVC,,0.00,65.0,WeatherDisplay:10.37,2013-11-04 18:52:00,
2013-11-04 12:57:00,50.7,39.4,30.01,SSE,147,5.9,8.1,65,0.00,OVC,,0.00,114.0,WeatherDisplay:10.37,2013-11-04 18:57:00,
2013-11-04 13:02:00,50.8,39.5,30.00,SE,129,9.2,15.0,65,0.00,OVC,,0.00,98.0,WeatherDisplay:10.37,2013-11-04 19:02:00,
2013-11-04 13:07:00,50.8,39.1,30.00,SSE,161,10.2,16.1,64,0.00,OVC,,0.00,62.0,WeatherDisplay:10.37,2013-11-04 19:07:00,
2013-11-04 13:12:00,50.8,39.5,30.00,South,186,8.3,10.4,65,0.00,OVC,,0.00,40.0,WeatherDisplay:10.37,2013-11-04 19:12:00,
2013-11-04 13:17:00,50.7,39.4,30.01,SSE,150,8.6,10.4,65,0.00,OVC,,0.00,54.0,WeatherDisplay:10.37,2013-11-04 19:17:00,
2013-11-04 13:22:00,50.8,39.1,30.01,SSW,192,8.0,10.4,64,0.00,OVC,,0.00,49.0,WeatherDisplay:10.37,2013-11-04 19:22:00,
2013-11-04 13:27:00,50.8,39.5,30.01,SSE,154,7.0,10.4,65,0.00,OVC,,0.00,51.0,WeatherDisplay:10.37,2013-11-04 19:27:00,
2013-11-04 13:32:00,50.7,39.4,30.00,South,185,6.8,8.1,65,0.00,OVC,,0.00,54.0,WeatherDisplay:10.37,2013-11-04 19:32:00,
2013-11-04 13:37:00,50.7,39.4,30.00,SSE,166,5.5,6.9,65,0.00,OVC,,0.00,70.0,WeatherDisplay:10.37,2013-11-04 19:37:00,
2013-11-04 13:42:00,50.7,39.4,30.00,South,169,10.5,12.7,65,0.00,-RA,,0.00,56.0,WeatherDisplay:10.37,2013-11-04 19:42:00,
2013-11-04 13:47:00,50.7,39.4,30.00,SSE,166,11.0,18.4,65,0.00,-RA,,0.00,44.0,WeatherDisplay:10.37,2013-11-04 19:47:00,
2013-11-04 13:52:00,50.7,39.4,30.00,South,178,7.7,12.7,65,0.00,-RA,,0.00,26.0,WeatherDisplay:10.37,2013-11-04 19:52:00,
2013-11-04 13:57:00,50.5,39.6,30.00,South,172,7.1,9.2,66,0.00,-RA,,0.00,23.0,WeatherDisplay:10.37,2013-11-04 19:57:00,
2013-11-04 14:02:00,50.5,39.6,30.01,South,191,5.4,11.5,66,0.00,-RA,,0.00,26.0,WeatherDisplay:10.37,2013-11-04 20:02:00,
2013-11-04 14:07:00,50.5,39.6,30.01,South,184,5.9,10.4,66,0.00,-RA,,0.00,23.0,WeatherDisplay:10.37,2013-11-04 20:07:00,
2013-11-04 14:12:00,50.5,39.6,30.01,South,182,0.2,2.3,66,0.00,-RA,,0.00,21.0,WeatherDisplay:10.37,2013-11-04 20:12:00,
2013-11-04 14:17:00,50.5,39.6,30.01,SSW,201,7.4,11.5,66,0.00,-RA,,0.00,19.0,WeatherDisplay:10.37,2013-11-04 20:17:00,
2013-11-04 14:22:00,50.5,39.6,30.01,South,172,7.0,13.0,66,0.00,-RA,,0.00,18.0,WeatherDisplay:10.37,2013-11-04 20:22:00,
2013-11-04 14:27:00,50.7,39.7,30.01,South,178,6.3,10.8,66,0.00,-RA,,0.00,16.0,WeatherDisplay:10.37,2013-11-04 20:27:00,
2013-11-04 14:32:00,50.5,39.6,30.01,SSE,165,5.8,8.1,66,0.00,-RA,,0.00,14.0,WeatherDisplay:10.37,2013-11-04 20:32:00,
2013-11-04 14:37:00,50.5,39.9,30.01,South,185,5.8,8.4,67,0.00,-RA,,0.00,16.0,WeatherDisplay:10.37,2013-11-04 20:37:00,
2013-11-04 14:42:00,50.5,39.9,30.01,South,174,7.7,9.2,67,0.00,OVC,,0.00,16.0,WeatherDisplay:10.37,2013-11-04 20:42:00,
2013-11-04 14:47:00,50.5,39.9,30.01,South,171,6.3,11.5,67,0.00,OVC,,0.00,16.0,WeatherDisplay:10.37,2013-11-04 20:47:00,
2013-11-04 14:52:00,50.5,39.9,30.01,South,171,3.4,8.1,67,0.00,OVC,,0.00,18.0,WeatherDisplay:10.37,2013-11-04 20:52:00,
2013-11-04 14:57:00,50.4,40.2,30.01,South,180,8.6,9.6,68,0.00,OVC,,0.00,18.0,WeatherDisplay:10.37,2013-11-04 20:57:00,
2013-11-04 15:02:00,50.2,40.4,30.02,SSE,150,3.0,6.9,69,0.00,-DZ,,0.00,18.0,WeatherDisplay:10.37,2013-11-04 21:02:00,
2013-11-04 15:07:00,50.1,40.3,30.02,South,179,6.0,11.5,69,0.00,-DZ,,0.00,16.0,WeatherDisplay:10.37,2013-11-04 21:07:00,
2013-11-04 15:12:00,49.9,40.5,30.02,SSW,211,2.7,10.4,70,0.00,-DZ,,0.00,12.0,WeatherDisplay:10.37,2013-11-04 21:12:00,
2013-11-04 15:17:00,49.6,40.9,30.03,SSW,200,10.4,15.0,72,0.00,-DZ,,0.00,12.0,WeatherDisplay:10.37,2013-11-04 21:17:00,
2013-11-04 15:22:00,49.4,41.1,30.03,SSE,168,3.0,8.4,73,0.00,OVC,,0.00,9.0,WeatherDisplay:10.37,2013-11-04 21:22:00,
2013-11-04 15:27:00,49.2,41.3,30.03,SSW,192,6.3,10.8,74,0.00,OVC,,0.00,9.0,WeatherDisplay:10.37,2013-11-04 21:27:00,
2013-11-04 15:32:00,49.2,41.6,30.04,South,182,2.1,8.1,75,0.00,OVC,,0.00,11.0,WeatherDisplay:10.37,2013-11-04 21:32:00,
2013-11-04 15:37:00,49.1,41.9,30.04,South,171,3.5,9.6,76,0.00,OVC,,0.00,14.0,WeatherDisplay:10.37,2013-11-04 21:37:00,
2013-11-04 15:42:00,48.9,41.7,30.04,South,173,3.5,8.1,76,0.00,OVC,,0.00,9.0,WeatherDisplay:10.37,2013-11-04 21:42:00,
2013-11-04 15:47:00,48.9,41.7,30.04,South,184,6.5,9.2,76,0.00,OVC,,0.00,11.0,WeatherDisplay:10.37,2013-11-04 21:47:00,
2013-11-04 15:52:00,49.2,41.6,30.04,SW,214,9.0,15.6,75,0.00,OVC,,0.00,9.0,WeatherDisplay:10.37,2013-11-04 21:52:00,
2013-11-04 15:57:00,49.2,41.6,30.04,South,183,7.4,16.8,75,0.00,OVC,,0.00,7.0,WeatherDisplay:10.37,2013-11-04 21:57:00,
2013-11-04 16:02:00,49.4,41.8,30.04,South,178,2.9,7.2,75,0.00,OVC,,0.00,7.0,WeatherDisplay:10.37,2013-11-04 22:02:00,
2013-11-04 16:07:00,49.4,41.8,30.04,South,173,5.1,9.2,75,0.00,OVC,,0.00,5.0,WeatherDisplay:10.37,2013-11-04 22:07:00,
2013-11-04 16:12:00,49.4,41.8,30.04,SSE,166,3.7,8.1,75,0.00,OVC,,0.00,7.0,WeatherDisplay:10.37,2013-11-04 22:12:00,
2013-11-04 16:17:00,49.2,42.0,30.04,SSW,203,5.8,15.6,76,0.00,OVC,,0.00,5.0,WeatherDisplay:10.37,2013-11-04 22:17:00,
2013-11-04 16:22:00,49.2,42.0,30.04,SSW,200,8.3,15.6,76,0.00,OVC,,0.00,5.0,WeatherDisplay:10.37,2013-11-04 22:22:00,
2013-11-04 16:27:00,49.1,42.2,30.04,South,191,5.5,19.2,77,0.00,OVC,,0.00,0.0,WeatherDisplay:10.37,2013-11-04 22:27:00,
2013-11-04 16:32:00,48.9,42.0,30.05,South,175,3.8,9.2,77,0.00,OVC,,0.00,0.0,WeatherDisplay:10.37,2013-11-04 22:32:00,
2013-11-04 16:37:00,48.9,42.3,30.05,South,180,3.0,6.9,78,0.00,OVC,,0.00,0.0,WeatherDisplay:10.37,2013-11-04 22:37:00,
2013-11-04 16:42:00,48.9,42.3,30.05,South,183,7.2,19.6,78,0.00,-DZ,,0.00,0.0,WeatherDisplay:10.37,2013-11-04 22:42:00,
2013-11-04 16:47:00,48.9,42.3,30.05,South,175,8.1,11.5,78,0.00,-DZ,,0.00,0.0,WeatherDisplay:10.37,2013-11-04 22:47:00,
2013-11-04 16:52:00,48.8,42.6,30.05,SSW,198,4.0,9.6,79,0.00,-DZ,,0.00,0.0,WeatherDisplay:10.37,2013-11-04 22:52:00,
2013-11-04 16:57:00,48.8,42.6,30.05,SSW,205,9.8,10.4,79,0.00,-DZ,,0.00,0.0,WeatherDisplay:10.37,2013-11-04 22:57:00,
2013-11-04 17:02:00,48.8,42.6,30.05,South,182,0.8,3.5,79,0.00,OVC,,0.00,0.0,WeatherDisplay:10.37,2013-11-04 23:02:00,
2013-11-04 17:07:00,48.6,42.4,30.05,SSW,205,4.1,7.2,79,0.00,OVC,,0.00,0.0,WeatherDisplay:10.37,2013-11-04 23:07:00,
2013-11-04 17:12:00,48.6,42.7,30.05,South,181,4.1,10.4,80,0.00,OVC,,0.00,0.0,WeatherDisplay:10.37,2013-11-04 23:12:00,
2013-11-04 17:17:00,48.6,42.7,30.05,SE,144,1.6,12.0,80,0.00,OVC,,0.00,0.0,WeatherDisplay:10.37,2013-11-04 23:17:00,
2013-11-04 17:22:00,48.6,42.7,30.05,South,188,9.9,16.1,80,0.00,OVC,,0.00,0.0,WeatherDisplay:10.37,2013-11-04 23:22:00,
2013-11-04 17:34:00,48.5,42.9,30.06,South,173,1.3,18.4,81,0.00,OVC,,0.00,0.0,WeatherDisplay:10.37,2013-11-04 23:34:00,
2013-11-04 17:39:00,48.3,43.1,30.06,SSW,195,4.7,9.2,82,0.00,OVC,,0.00,0.0,WeatherDisplay:10.37,2013-11-04 23:39:00,
2013-11-04 17:44:00,48.3,43.1,30.07,SSW,207,4.8,15.0,82,0.00,OVC,,0.00,0.0,WeatherDisplay:10.37,2013-11-04 23:44:00,
2013-11-04 17:49:00,48.2,43.3,30.07,SSW,200,7.1,9.6,83,0.00,OVC,,0.00,0.0,WeatherDisplay:10.37,2013-11-04 23:49:00,
2013-11-04 17:54:00,48.0,43.4,30.07,South,177,2.4,9.2,84,0.00,OVC,,0.00,0.0,WeatherDisplay:10.37,2013-11-04 23:54:00,
2013-11-04 17:59:00,47.9,43.6,30.08,South,190,3.8,5.8,85,0.00,OVC,,0.00,0.0,WeatherDisplay:10.37,2013-11-04 23:59:00,
2013-11-04 18:04:00,47.7,43.7,30.08,South,190,1.0,5.8,86,0.00,OVC,,0.00,0.0,WeatherDisplay:10.37,2013-11-05 00:04:00,
2013-11-04 18:09:00,47.6,43.9,30.08,South,187,3.1,5.8,87,0.00,OVC,,0.00,0.0,WeatherDisplay:10.37,2013-11-05 00:09:00,
2013-11-04 18:14:00,47.4,44.0,30.08,SSW,202,3.4,5.8,88,0.00,OVC,,0.00,0.0,WeatherDisplay:10.37,2013-11-05 00:14:00,
2013-11-04 18:19:00,47.3,44.2,30.08,SSW,196,1.4,4.6,89,0.00,OVC,,0.00,0.0,WeatherDisplay:10.37,2013-11-05 00:19:00,
2013-11-04 18:24:00,47.0,44.2,30.08,SSW,198,0.0,0.0,90,0.00,OVC,,0.00,0.0,WeatherDisplay:10.37,2013-11-05 00:24:00,
2013-11-04 18:29:00,47.0,44.2,30.08,SSW,203,2.5,9.6,90,0.00,OVC,,0.00,0.0,WeatherDisplay:10.37,2013-11-05 00:29:00,
2013-11-04 18:34:00,46.8,44.3,30.08,SSW,194,0.9,4.8,91,0.00,OVC,,0.00,0.0,WeatherDisplay:10.37,2013-11-05 00:34:00,
2013-11-04 18:39:00,46.8,44.3,30.08,South,182,0.0,0.0,91,0.00,OVC,,0.00,0.0,WeatherDisplay:10.37,2013-11-05 00:39:00,
2013-11-04 18:44:00,46.8,44.3,30.08,South,190,2.4,4.6,91,0.00,OVC,,0.00,0.0,WeatherDisplay:10.37,2013-11-05 00:44:00,
2013-11-04 18:49:00,46.8,44.3,30.08,South,173,0.1,0.0,91,0.00,OVC,,0.00,0.0,WeatherDisplay:10.37,2013-11-05 00:49:00,
2013-11-04 18:54:00,46.8,44.3,30.08,South,178,3.4,7.2,91,0.00,OVC,,0.00,0.0,WeatherDisplay:10.37,2013-11-05 00:54:00,
2013-11-04 18:59:00,47.0,44.5,30.08,South,175,2.7,6.9,91,0.00,OVC,,0.00,0.0,WeatherDisplay:10.37,2013-11-05 00:59:00,
2013-11-04 19:04:00,47.0,44.5,30.08,South,171,2.8,6.9,91,0.00,OVC,,0.00,0.0,WeatherDisplay:10.37,2013-11-05 01:04:00,
2013-11-04 19:09:00,47.1,44.3,30.08,South,183,1.8,4.8,90,0.00,OVC,,0.00,0.0,WeatherDisplay:10.37,2013-11-05 01:09:00,
2013-11-04 19:14:00,47.1,44.3,30.09,South,172,0.0,0.0,90,0.00,OVC,,0.00,0.0,WeatherDisplay:10.37,2013-11-05 01:14:00,
2013-11-04 19:19:00,47.1,44.3,30.09,South,178,2.8,5.8,90,0.00,OVC,,0.00,0.0,WeatherDisplay:10.37,2013-11-05 01:19:00,
2013-11-04 19:24:00,47.3,44.2,30.09,South,171,1.6,9.2,89,0.00,OVC,,0.00,0.0,WeatherDisplay:10.37,2013-11-05 01:24:00,
2013-11-04 19:29:00,47.4,44.3,30.09,South,177,0.0,4.6,89,0.00,OVC,,0.00,0.0,WeatherDisplay:10.37,2013-11-05 01:29:00,
2013-11-04 19:35:00,47.4,44.3,30.09,South,191,8.1,8.1,89,0.00,OVC,,0.00,0.0,WeatherDisplay:10.37,2013-11-05 01:35:00,
2013-11-04 19:40:00,47.4,44.0,30.09,South,180,2.8,8.1,88,0.00,OVC,,0.00,0.0,WeatherDisplay:10.37,2013-11-05 01:40:00,
2013-11-04 19:45:00,47.6,44.2,30.09,SSW,193,1.5,4.6,88,0.00,-DZ,,0.00,0.0,WeatherDisplay:10.37,2013-11-05 01:45:00,
2013-11-04 19:50:00,47.6,44.2,30.09,South,186,0.0,5.8,88,0.00,-DZ,,0.00,0.0,WeatherDisplay:10.37,2013-11-05 01:50:00,
2013-11-04 19:55:00,47.6,44.2,30.09,South,175,0.0,6.9,88,0.00,-DZ,,0.00,0.0,WeatherDisplay:10.37,2013-11-05 01:55:00,
2013-11-04 20:00:00,47.6,43.9,30.10,SSE,162,0.3,11.5,87,0.00,-DZ,,0.00,0.0,WeatherDisplay:10.37,2013-11-05 02:00:00,
2013-11-04 20:05:00,47.6,43.9,30.10,SSW,200,6.2,6.9,87,0.00,OVC,,0.00,0.0,WeatherDisplay:10.37,2013-11-05 02:05:00,
2013-11-04 20:10:00,47.7,44.0,30.10,SSW,192,2.6,6.9,87,0.00,OVC,,0.00,0.0,WeatherDisplay:10.37,2013-11-05 02:10:00,
2013-11-04 20:15:00,47.7,44.0,30.11,SSW,202,5.4,8.1,87,0.00,OVC,,0.00,0.0,WeatherDisplay:10.37,2013-11-05 02:15:00,
2013-11-04 20:20:00,47.7,44.0,30.11,SSW,207,4.7,6.9,87,0.00,OVC,,0.00,0.0,WeatherDisplay:10.37,2013-11-05 02:20:00,
2013-11-04 20:25:00,47.7,44.0,30.11,SSW,198,0.5,3.5,87,0.00,OVC,,0.00,0.0,WeatherDisplay:10.37,2013-11-05 02:25:00,
2013-11-04 20:30:00,47.7,44.0,30.11,SSW,198,1.9,6.0,87,0.00,OVC,,0.00,0.0,WeatherDisplay:10.37,2013-11-05 02:30:00,
2013-11-04 20:35:00,47.7,44.0,30.11,SSW,202,1.6,5.8,87,0.00,OVC,,0.00,0.0,WeatherDisplay:10.37,2013-11-05 02:35:00,
2013-11-04 20:40:00,47.7,44.0,30.11,South,190,0.0,5.8,87,0.00,OVC,,0.00,0.0,WeatherDisplay:10.37,2013-11-05 02:40:00,
2013-11-04 20:45:00,47.7,44.0,30.11,SSW,194,0.5,3.6,87,0.00,OVC,,0.00,0.0,WeatherDisplay:10.37,2013-11-05 02:45:00,
2013-11-04 20:50:00,47.7,43.7,30.11,SSW,194,0.0,2.3,86,0.00,OVC,,0.00,0.0,WeatherDisplay:10.37,2013-11-05 02:50:00,
2013-11-04 20:55:00,47.9,43.9,30.11,SSE,158,1.0,9.2,86,0.00,OVC,,0.00,0.0,WeatherDisplay:10.37,2013-11-05 02:55:00,
2013-11-04 21:00:00,47.9,43.9,30.12,SW,216,1.0,6.9,86,0.00,OVC,,0.00,0.0,WeatherDisplay:10.37,2013-11-05 03:00:00,
2013-11-04 21:05:00,48.0,44.0,30.12,South,186,6.8,8.1,86,0.00,OVC,,0.00,0.0,WeatherDisplay:10.37,2013-11-05 03:05:00,
2013-11-04 21:10:00,48.0,44.0,30.12,SSW,199,5.7,8.1,86,0.00,OVC,,0.00,0.0,WeatherDisplay:10.37,2013-11-05 03:10:00,
2013-11-04 21:15:00,48.0,44.0,30.12,South,177,1.7,8.1,86,0.00,OVC,,0.00,0.0,WeatherDisplay:10.37,2013-11-05 03:15:00,
2013-11-04 21:20:00,48.0,44.0,30.12,South,174,2.6,6.9,86,0.00,OVC,,0.00,0.0,WeatherDisplay:10.37,2013-11-05 03:20:00,
2013-11-04 21:25:00,48.0,44.3,30.12,South,175,7.6,11.5,87,0.00,OVC,,0.00,0.0,WeatherDisplay:10.37,2013-11-05 03:25:00,
2013-11-04 21:30:00,47.9,44.2,30.12,South,171,0.0,6.9,87,0.00,OVC,,0.00,0.0,WeatherDisplay:10.37,2013-11-05 03:30:00,
2013-11-04 21:35:00,47.9,44.2,30.12,SSW,206,4.3,5.8,87,0.00,OVC,,0.00,0.0,WeatherDisplay:10.37,2013-11-05 03:35:00,
2013-11-04 21:40:00,47.9,44.2,30.12,SW,219,6.9,8.4,87,0.00,OVC,,0.00,0.0,WeatherDisplay:10.37,2013-11-05 03:40:00,
2013-11-04 21:45:00,47.9,44.5,30.13,South,184,0.0,0.0,88,0.00,OVC,,0.00,0.0,WeatherDisplay:10.37,2013-11-05 03:45:00,
2013-11-04 21:50:00,47.9,44.5,30.13,South,183,0.6,6.0,88,0.00,OVC,,0.00,0.0,WeatherDisplay:10.37,2013-11-05 03:50:00,
2013-11-04 21:55:00,47.9,44.5,30.13,SW,225,0.0,4.6,88,0.00,OVC,,0.00,0.0,WeatherDisplay:10.37,2013-11-05 03:55:00,
2013-11-04 22:00:00,47.9,44.5,30.13,SSW,205,0.5,5.8,88,0.00,OVC,,0.00,0.0,WeatherDisplay:10.37,2013-11-05 04:00:00,
2013-11-04 22:05:00,48.0,44.6,30.13,SSW,198,4.0,5.8,88,0.00,OVC,,0.00,0.0,WeatherDisplay:10.37,2013-11-05 04:05:00,
2013-11-04 22:10:00,48.0,44.6,30.13,SSW,192,0.0,3.5,88,0.00,OVC,,0.00,0.0,WeatherDisplay:10.37,2013-11-05 04:10:00,
2013-11-04 22:15:00,48.0,44.6,30.14,SSW,192,0.0,0.0,88,0.00,OVC,,0.00,0.0,WeatherDisplay:10.37,2013-11-05 04:15:00,
2013-11-04 22:20:00,48.0,44.6,30.14,SSW,192,0.0,0.0,88,0.00,OVC,,0.00,0.0,WeatherDisplay:10.37,2013-11-05 04:20:00,
2013-11-04 22:25:00,48.0,44.6,30.14,SSW,192,0.0,0.0,88,0.00,OVC,,0.00,0.0,WeatherDisplay:10.37,2013-11-05 04:25:00,
2013-11-04 22:30:00,48.0,44.6,30.14,SSW,192,0.0,0.0,88,0.00,OVC,,0.00,0.0,WeatherDisplay:10.37,2013-11-05 04:30:00,